RYR31KK LICJ-LIMJ
Flight info
| Callsign | RYR31KK |
|---|---|
| Flight time | 1h 29m |
| Altitude | 38000 |
| Route | LURON DCT RONAB DCT RUVIP DCT BETOT DCT POKAV DCT TINTO DCT VELAD DCT ELB DCT NORNI DCT BETEN M729 IDONA |
| Aircraft | B38M/M-SDE1FGHILORVWXY/HB1 |
Departure
| Time | 2026-04-21 18:17 |
|---|---|
| Airport | Falcone–Borsellino Airport (LICJ) |
Arrival
| Time | 2026-04-21 19:46 |
|---|---|
| Airport | Genoa Cristoforo Colombo Airport (LIMJ) |
| Time | Latitude | Longitude | Altitude | Speed | Heading |
|---|---|---|---|---|---|
| 2026-04-21 17:48 | 38.18592 | 13.10862 | 67 ft | 0 kts | 247° |
| 2026-04-21 18:10 | 38.18590 | 13.10855 | 67 ft | 2 kts | 247° |
| 2026-04-21 18:10 | 38.18580 | 13.10830 | 65 ft | 4 kts | 239° |
| 2026-04-21 18:11 | 38.18552 | 13.10800 | 62 ft | 6 kts | 209° |
| 2026-04-21 18:11 | 38.18518 | 13.10755 | 67 ft | 8 kts | 244° |
| 2026-04-21 18:11 | 38.18492 | 13.10681 | 59 ft | 10 kts | 246° |
| 2026-04-21 18:11 | 38.18462 | 13.10588 | 60 ft | 12 kts | 248° |
| 2026-04-21 18:12 | 38.18404 | 13.10509 | 68 ft | 14 kts | 200° |
| 2026-04-21 18:12 | 38.18328 | 13.10464 | 63 ft | 10 kts | 229° |
| 2026-04-21 18:12 | 38.18305 | 13.10405 | 59 ft | 12 kts | 246° |
| 2026-04-21 18:12 | 38.18239 | 13.10374 | 64 ft | 12 kts | 170° |
| 2026-04-21 18:13 | 38.18190 | 13.10302 | 60 ft | 13 kts | 250° |
| 2026-04-21 18:13 | 38.18153 | 13.10190 | 62 ft | 15 kts | 246° |
| 2026-04-21 18:13 | 38.18110 | 13.10061 | 62 ft | 17 kts | 245° |
| 2026-04-21 18:13 | 38.18063 | 13.09917 | 67 ft | 19 kts | 248° |
| 2026-04-21 18:14 | 38.17949 | 13.09584 | 65 ft | 22 kts | 248° |
| 2026-04-21 18:14 | 38.17890 | 13.09399 | 70 ft | 23 kts | 246° |
| 2026-04-21 18:14 | 38.17828 | 13.09221 | 68 ft | 22 kts | 248° |
| 2026-04-21 18:15 | 38.17763 | 13.09020 | 66 ft | 25 kts | 246° |
| 2026-04-21 18:15 | 38.17702 | 13.08917 | 66 ft | 12 kts | 216° |
| 2026-04-21 18:15 | 38.17631 | 13.08851 | 66 ft | 14 kts | 216° |
| 2026-04-21 18:15 | 38.17551 | 13.08777 | 68 ft | 15 kts | 216° |
| 2026-04-21 18:16 | 38.17483 | 13.08780 | 65 ft | 6 kts | 118° |
| 2026-04-21 18:16 | 38.17497 | 13.08847 | 72 ft | 14 kts | 68° |
| 2026-04-21 18:16 | 38.17610 | 13.09178 | 72 ft | 76 kts | 67° |
| 2026-04-21 18:16 | 38.17903 | 13.10051 | 62 ft | 137 kts | 67° |
| 2026-04-21 18:17 | 38.18335 | 13.11331 | 254 ft | 167 kts | 67° |
| 2026-04-21 18:17 | 38.18758 | 13.12695 | 902 ft | 174 kts | 70° |
| 2026-04-21 18:17 | 38.19248 | 13.14168 | 1473 ft | 184 kts | 66° |
| 2026-04-21 18:17 | 38.19806 | 13.15711 | 2017 ft | 202 kts | 65° |
| 2026-04-21 18:18 | 38.20431 | 13.17452 | 2524 ft | 225 kts | 66° |
| 2026-04-21 18:18 | 38.21144 | 13.19285 | 3084 ft | 244 kts | 56° |
| 2026-04-21 18:18 | 38.22442 | 13.20722 | 3786 ft | 253 kts | 24° |
| 2026-04-21 18:18 | 38.24118 | 13.21547 | 4578 ft | 262 kts | 18° |
| 2026-04-21 18:19 | 38.25878 | 13.22368 | 5374 ft | 272 kts | 19° |
| 2026-04-21 18:19 | 38.27646 | 13.23245 | 6291 ft | 274 kts | 19° |
| 2026-04-21 18:19 | 38.29431 | 13.24157 | 7161 ft | 278 kts | 19° |
| 2026-04-21 18:19 | 38.31233 | 13.25093 | 7896 ft | 288 kts | 19° |
| 2026-04-21 18:20 | 38.33151 | 13.26099 | 8331 ft | 307 kts | 19° |
| 2026-04-21 18:20 | 38.35188 | 13.27178 | 8840 ft | 322 kts | 19° |
| 2026-04-21 18:20 | 38.37236 | 13.28267 | 9744 ft | 324 kts | 19° |
| 2026-04-21 18:20 | 38.39324 | 13.29378 | 10462 ft | 329 kts | 18° |
| 2026-04-21 18:21 | 38.41547 | 13.30000 | 10673 ft | 325 kts | 355° |
| 2026-04-21 18:21 | 38.43726 | 13.29431 | 11415 ft | 320 kts | 340° |
| 2026-04-21 18:21 | 38.45877 | 13.28579 | 12105 ft | 326 kts | 340° |
| 2026-04-21 18:21 | 38.48050 | 13.27696 | 12909 ft | 329 kts | 339° |
| 2026-04-21 18:22 | 38.50239 | 13.26789 | 13677 ft | 333 kts | 339° |
| 2026-04-21 18:22 | 38.52450 | 13.25860 | 14361 ft | 336 kts | 339° |
| 2026-04-21 18:22 | 38.54681 | 13.24917 | 15090 ft | 339 kts | 339° |
| 2026-04-21 18:22 | 38.56929 | 13.23962 | 15793 ft | 342 kts | 339° |
| 2026-04-21 18:23 | 38.59195 | 13.22998 | 16484 ft | 345 kts | 339° |
| 2026-04-21 18:23 | 38.61481 | 13.22024 | 17173 ft | 348 kts | 339° |
| 2026-04-21 18:23 | 38.63789 | 13.21040 | 17836 ft | 351 kts | 339° |
| 2026-04-21 18:23 | 38.66112 | 13.20049 | 18439 ft | 354 kts | 339° |
| 2026-04-21 18:24 | 38.68456 | 13.19048 | 19000 ft | 356 kts | 339° |
| 2026-04-21 18:24 | 38.70817 | 13.18039 | 19545 ft | 359 kts | 339° |
| 2026-04-21 18:24 | 38.73198 | 13.17021 | 20100 ft | 362 kts | 339° |
| 2026-04-21 18:24 | 38.75595 | 13.15996 | 20644 ft | 364 kts | 339° |
| 2026-04-21 18:25 | 38.78007 | 13.14963 | 21184 ft | 367 kts | 338° |
| 2026-04-21 18:25 | 38.80439 | 13.13920 | 21722 ft | 370 kts | 338° |
| 2026-04-21 18:25 | 38.82886 | 13.12872 | 22254 ft | 373 kts | 338° |
| 2026-04-21 18:25 | 38.85304 | 13.11667 | 22748 ft | 373 kts | 327° |
| 2026-04-21 18:26 | 38.87352 | 13.09656 | 23289 ft | 371 kts | 316° |
| 2026-04-21 18:26 | 38.89291 | 13.07436 | 23711 ft | 376 kts | 316° |
| 2026-04-21 18:26 | 38.91236 | 13.05181 | 24179 ft | 377 kts | 315° |
| 2026-04-21 18:26 | 38.93152 | 13.02930 | 24643 ft | 379 kts | 315° |
| 2026-04-21 18:27 | 38.95103 | 13.00620 | 25094 ft | 381 kts | 315° |
| 2026-04-21 18:27 | 38.97052 | 12.98303 | 25547 ft | 383 kts | 315° |
| 2026-04-21 18:27 | 38.99009 | 12.95970 | 26000 ft | 385 kts | 315° |
| 2026-04-21 18:27 | 39.00977 | 12.93621 | 26432 ft | 387 kts | 314° |
| 2026-04-21 18:28 | 39.02955 | 12.91259 | 26855 ft | 389 kts | 314° |
| 2026-04-21 18:28 | 39.04941 | 12.88885 | 27280 ft | 391 kts | 314° |
| 2026-04-21 18:28 | 39.06937 | 12.86497 | 27697 ft | 393 kts | 314° |
| 2026-04-21 18:28 | 39.08939 | 12.84101 | 28105 ft | 395 kts | 314° |
| 2026-04-21 18:29 | 39.10953 | 12.81687 | 28559 ft | 396 kts | 314° |
| 2026-04-21 18:29 | 39.12968 | 12.79270 | 29007 ft | 396 kts | 314° |
| 2026-04-21 18:29 | 39.14991 | 12.76842 | 29377 ft | 399 kts | 314° |
| 2026-04-21 18:29 | 39.17027 | 12.74396 | 29707 ft | 402 kts | 314° |
| 2026-04-21 18:30 | 39.19076 | 12.71934 | 30063 ft | 404 kts | 314° |
| 2026-04-21 18:30 | 39.21132 | 12.69459 | 30382 ft | 405 kts | 314° |
| 2026-04-21 18:30 | 39.23198 | 12.66971 | 30680 ft | 407 kts | 314° |
| 2026-04-21 18:30 | 39.25271 | 12.64473 | 30978 ft | 409 kts | 314° |
| 2026-04-21 18:31 | 39.27358 | 12.61955 | 31275 ft | 411 kts | 314° |
| 2026-04-21 18:31 | 39.29449 | 12.59431 | 31566 ft | 413 kts | 314° |
| 2026-04-21 18:31 | 39.31549 | 12.56892 | 31856 ft | 415 kts | 314° |
| 2026-04-21 18:31 | 39.33658 | 12.54342 | 32196 ft | 415 kts | 314° |
| 2026-04-21 18:32 | 39.35763 | 12.51793 | 32629 ft | 414 kts | 314° |
| 2026-04-21 18:32 | 39.37855 | 12.49259 | 33096 ft | 411 kts | 314° |
| 2026-04-21 18:32 | 39.39939 | 12.46732 | 33519 ft | 410 kts | 314° |
| 2026-04-21 18:32 | 39.42013 | 12.44215 | 33908 ft | 409 kts | 314° |
| 2026-04-21 18:33 | 39.44071 | 12.41714 | 34240 ft | 408 kts | 314° |
| 2026-04-21 18:33 | 39.46138 | 12.39201 | 34542 ft | 408 kts | 314° |
| 2026-04-21 18:33 | 39.48204 | 12.36686 | 34817 ft | 408 kts | 314° |
| 2026-04-21 18:33 | 39.50270 | 12.34170 | 35121 ft | 408 kts | 314° |
| 2026-04-21 18:34 | 39.52336 | 12.31652 | 35434 ft | 407 kts | 314° |
| 2026-04-21 18:34 | 39.54393 | 12.29142 | 35714 ft | 406 kts | 314° |
| 2026-04-21 18:34 | 39.56445 | 12.26637 | 36070 ft | 404 kts | 314° |
| 2026-04-21 18:34 | 39.58486 | 12.24143 | 36404 ft | 402 kts | 313° |
| 2026-04-21 18:35 | 39.59860 | 12.22463 | 36580 ft | 402 kts | 313° |
| 2026-04-21 18:35 | 39.62549 | 12.19172 | 36971 ft | 400 kts | 313° |
| 2026-04-21 18:35 | 39.64568 | 12.16698 | 37253 ft | 399 kts | 313° |
| 2026-04-21 18:35 | 39.66588 | 12.14221 | 37493 ft | 399 kts | 313° |
| 2026-04-21 18:36 | 39.68604 | 12.11747 | 37717 ft | 399 kts | 313° |
| 2026-04-21 18:36 | 39.70614 | 12.09279 | 37922 ft | 398 kts | 313° |
| 2026-04-21 18:36 | 39.72634 | 12.06796 | 37961 ft | 400 kts | 313° |
| 2026-04-21 18:37 | 39.76675 | 12.01822 | 37935 ft | 400 kts | 313° |
| 2026-04-21 18:37 | 39.80722 | 11.96834 | 37938 ft | 401 kts | 313° |
| 2026-04-21 18:38 | 39.84770 | 11.91838 | 37942 ft | 401 kts | 313° |
| 2026-04-21 18:38 | 39.86942 | 11.89549 | 37931 ft | 405 kts | 326° |
| 2026-04-21 18:38 | 39.89515 | 11.88018 | 37965 ft | 409 kts | 332° |
| 2026-04-21 18:39 | 39.94814 | 11.85230 | 37941 ft | 411 kts | 333° |
| 2026-04-21 18:39 | 40.00155 | 11.82519 | 37935 ft | 412 kts | 334° |
| 2026-04-21 18:40 | 40.05500 | 11.79835 | 37940 ft | 412 kts | 334° |
| 2026-04-21 18:40 | 40.09944 | 11.77605 | 37940 ft | 412 kts | 334° |
| 2026-04-21 18:41 | 40.16200 | 11.74462 | 37937 ft | 412 kts | 334° |
| 2026-04-21 18:41 | 40.21506 | 11.71792 | 37938 ft | 412 kts | 334° |
| 2026-04-21 18:42 | 40.26853 | 11.69096 | 37940 ft | 412 kts | 334° |
| 2026-04-21 18:42 | 40.32201 | 11.66395 | 37965 ft | 412 kts | 334° |
| 2026-04-21 18:43 | 40.37529 | 11.63697 | 37936 ft | 409 kts | 334° |
| 2026-04-21 18:43 | 40.42840 | 11.61004 | 37947 ft | 410 kts | 334° |
| 2026-04-21 18:44 | 40.47192 | 11.58792 | 37936 ft | 409 kts | 334° |
| 2026-04-21 18:44 | 40.52513 | 11.56084 | 37945 ft | 410 kts | 334° |
| 2026-04-21 18:45 | 40.57826 | 11.53374 | 37947 ft | 410 kts | 334° |
| 2026-04-21 18:45 | 40.63137 | 11.50661 | 37942 ft | 409 kts | 334° |
| 2026-04-21 18:46 | 40.68447 | 11.47943 | 37946 ft | 410 kts | 334° |
| 2026-04-21 18:46 | 40.73761 | 11.45220 | 37943 ft | 410 kts | 334° |
| 2026-04-21 18:47 | 40.79067 | 11.42494 | 37973 ft | 409 kts | 334° |
| 2026-04-21 18:47 | 40.84370 | 11.39767 | 37942 ft | 408 kts | 334° |
| 2026-04-21 18:48 | 40.89662 | 11.37041 | 37941 ft | 409 kts | 333° |
| 2026-04-21 18:48 | 40.94929 | 11.34323 | 37944 ft | 409 kts | 333° |
| 2026-04-21 18:49 | 41.00228 | 11.31583 | 37944 ft | 409 kts | 333° |
| 2026-04-21 18:49 | 41.04663 | 11.29286 | 37933 ft | 409 kts | 333° |
| 2026-04-21 18:50 | 41.10821 | 11.26093 | 37940 ft | 409 kts | 333° |
| 2026-04-21 18:50 | 41.16156 | 11.23321 | 37937 ft | 409 kts | 333° |
| 2026-04-21 18:51 | 41.21428 | 11.20577 | 37942 ft | 409 kts | 333° |
| 2026-04-21 18:51 | 41.26722 | 11.17817 | 37942 ft | 408 kts | 333° |
| 2026-04-21 18:52 | 41.32007 | 11.15056 | 37945 ft | 408 kts | 333° |
| 2026-04-21 18:52 | 41.37288 | 11.12293 | 37944 ft | 408 kts | 333° |
| 2026-04-21 18:53 | 41.42572 | 11.09523 | 37944 ft | 408 kts | 333° |
| 2026-04-21 18:53 | 41.47857 | 11.06749 | 37952 ft | 408 kts | 333° |
| 2026-04-21 18:54 | 41.53122 | 11.03981 | 37945 ft | 407 kts | 333° |
| 2026-04-21 18:54 | 41.58396 | 11.01203 | 37941 ft | 407 kts | 333° |
| 2026-04-21 18:55 | 41.62775 | 10.98894 | 37938 ft | 407 kts | 333° |
| 2026-04-21 18:55 | 41.68933 | 10.95641 | 37963 ft | 407 kts | 333° |
| 2026-04-21 18:56 | 41.74197 | 10.92856 | 37941 ft | 406 kts | 333° |
| 2026-04-21 18:56 | 41.79465 | 10.90063 | 37941 ft | 407 kts | 333° |
| 2026-04-21 18:57 | 41.84708 | 10.87278 | 37947 ft | 407 kts | 333° |
| 2026-04-21 18:57 | 41.89081 | 10.84950 | 37944 ft | 407 kts | 333° |
| 2026-04-21 18:58 | 41.94336 | 10.82147 | 37942 ft | 406 kts | 333° |
| 2026-04-21 18:58 | 41.99586 | 10.79342 | 37940 ft | 406 kts | 332° |
| 2026-04-21 18:59 | 42.04834 | 10.76536 | 37945 ft | 406 kts | 332° |
| 2026-04-21 18:59 | 42.10081 | 10.73723 | 37945 ft | 406 kts | 332° |
| 2026-04-21 19:00 | 42.15318 | 10.70911 | 37934 ft | 404 kts | 332° |
| 2026-04-21 19:00 | 42.20532 | 10.68110 | 37944 ft | 403 kts | 333° |
| 2026-04-21 19:01 | 42.25742 | 10.65304 | 37943 ft | 403 kts | 333° |
| 2026-04-21 19:01 | 42.30961 | 10.62487 | 37939 ft | 404 kts | 333° |
| 2026-04-21 19:02 | 42.36175 | 10.59668 | 37944 ft | 404 kts | 333° |
| 2026-04-21 19:02 | 42.41386 | 10.56845 | 37928 ft | 404 kts | 333° |
| 2026-04-21 19:03 | 42.46598 | 10.54016 | 37941 ft | 403 kts | 333° |
| 2026-04-21 19:03 | 42.51767 | 10.51206 | 37936 ft | 403 kts | 333° |
| 2026-04-21 19:04 | 42.56971 | 10.48371 | 37950 ft | 404 kts | 332° |
| 2026-04-21 19:04 | 42.59567 | 10.46956 | 37726 ft | 398 kts | 332° |
| 2026-04-21 19:04 | 42.62113 | 10.45566 | 37329 ft | 391 kts | 332° |
| 2026-04-21 19:04 | 42.64612 | 10.44202 | 36943 ft | 384 kts | 332° |
| 2026-04-21 19:05 | 42.67068 | 10.42859 | 36578 ft | 377 kts | 332° |
| 2026-04-21 19:05 | 42.69477 | 10.41541 | 36234 ft | 370 kts | 332° |
| 2026-04-21 19:05 | 42.71840 | 10.40247 | 35943 ft | 362 kts | 332° |
| 2026-04-21 19:05 | 42.74057 | 10.38771 | 35617 ft | 347 kts | 323° |
| 2026-04-21 19:06 | 42.76118 | 10.37119 | 35237 ft | 339 kts | 325° |
| 2026-04-21 19:06 | 42.78158 | 10.35564 | 34845 ft | 329 kts | 325° |
| 2026-04-21 19:06 | 42.80133 | 10.34071 | 34437 ft | 321 kts | 325° |
| 2026-04-21 19:06 | 42.82070 | 10.32614 | 33962 ft | 316 kts | 325° |
| 2026-04-21 19:07 | 42.83982 | 10.31178 | 33374 ft | 312 kts | 325° |
| 2026-04-21 19:07 | 42.85877 | 10.29755 | 32732 ft | 310 kts | 325° |
| 2026-04-21 19:07 | 42.87761 | 10.28341 | 32120 ft | 308 kts | 326° |
| 2026-04-21 19:07 | 42.89642 | 10.26928 | 31579 ft | 308 kts | 326° |
| 2026-04-21 19:08 | 42.91509 | 10.25523 | 31215 ft | 305 kts | 326° |
| 2026-04-21 19:08 | 42.93364 | 10.24128 | 30903 ft | 304 kts | 326° |
| 2026-04-21 19:08 | 42.95216 | 10.22734 | 30694 ft | 304 kts | 326° |
| 2026-04-21 19:08 | 42.97071 | 10.21335 | 30484 ft | 305 kts | 326° |
| 2026-04-21 19:09 | 42.98925 | 10.19937 | 30277 ft | 304 kts | 326° |
| 2026-04-21 19:09 | 43.00769 | 10.18546 | 30072 ft | 302 kts | 326° |
| 2026-04-21 19:09 | 43.02604 | 10.17160 | 29935 ft | 301 kts | 326° |
| 2026-04-21 19:10 | 43.06278 | 10.14384 | 29944 ft | 302 kts | 326° |
| 2026-04-21 19:10 | 43.09932 | 10.11618 | 29942 ft | 302 kts | 326° |
| 2026-04-21 19:11 | 43.13619 | 10.08824 | 29944 ft | 302 kts | 326° |
| 2026-04-21 19:11 | 43.17290 | 10.06038 | 29944 ft | 302 kts | 326° |
| 2026-04-21 19:12 | 43.20957 | 10.03251 | 29958 ft | 301 kts | 326° |
| 2026-04-21 19:12 | 43.22766 | 10.01876 | 29502 ft | 295 kts | 326° |
| 2026-04-21 19:12 | 43.24553 | 10.00516 | 28821 ft | 296 kts | 326° |
| 2026-04-21 19:12 | 43.26365 | 9.99136 | 28294 ft | 292 kts | 326° |
| 2026-04-21 19:13 | 43.28129 | 9.97787 | 27740 ft | 290 kts | 325° |
| 2026-04-21 19:13 | 43.29878 | 9.96444 | 27222 ft | 287 kts | 325° |
| 2026-04-21 19:13 | 43.31592 | 9.95128 | 26701 ft | 285 kts | 325° |
| 2026-04-21 19:13 | 43.33316 | 9.93803 | 26195 ft | 283 kts | 325° |
| 2026-04-21 19:14 | 43.35047 | 9.92472 | 25676 ft | 280 kts | 325° |
| 2026-04-21 19:14 | 43.36719 | 9.91186 | 25215 ft | 278 kts | 325° |
| 2026-04-21 19:14 | 43.38427 | 9.89871 | 24714 ft | 277 kts | 325° |
| 2026-04-21 19:14 | 43.40077 | 9.88600 | 24250 ft | 275 kts | 325° |
| 2026-04-21 19:15 | 43.41735 | 9.87321 | 23833 ft | 272 kts | 325° |
| 2026-04-21 19:15 | 43.43376 | 9.86056 | 23362 ft | 270 kts | 325° |
| 2026-04-21 19:15 | 43.45007 | 9.84798 | 22832 ft | 268 kts | 325° |
| 2026-04-21 19:15 | 43.46627 | 9.83547 | 22303 ft | 266 kts | 325° |
| 2026-04-21 19:16 | 43.48236 | 9.82304 | 21782 ft | 264 kts | 325° |
| 2026-04-21 19:16 | 43.49838 | 9.81066 | 21276 ft | 263 kts | 326° |
| 2026-04-21 19:16 | 43.51424 | 9.79839 | 20789 ft | 261 kts | 326° |
| 2026-04-21 19:16 | 43.53001 | 9.78619 | 20311 ft | 259 kts | 326° |
| 2026-04-21 19:17 | 43.56129 | 9.76195 | 19391 ft | 256 kts | 326° |
| 2026-04-21 19:17 | 43.57682 | 9.74991 | 18936 ft | 255 kts | 326° |
| 2026-04-21 19:17 | 43.59222 | 9.73795 | 18490 ft | 254 kts | 326° |
| 2026-04-21 19:18 | 43.60760 | 9.72601 | 18015 ft | 253 kts | 326° |
| 2026-04-21 19:18 | 43.62286 | 9.71415 | 17546 ft | 251 kts | 326° |
| 2026-04-21 19:18 | 43.63802 | 9.70237 | 17072 ft | 249 kts | 326° |
| 2026-04-21 19:18 | 43.65312 | 9.69063 | 16586 ft | 249 kts | 326° |
| 2026-04-21 19:19 | 43.66817 | 9.67892 | 16104 ft | 248 kts | 326° |
| 2026-04-21 19:19 | 43.68324 | 9.66719 | 15699 ft | 248 kts | 326° |
| 2026-04-21 19:19 | 43.69798 | 9.65570 | 15587 ft | 240 kts | 326° |
| 2026-04-21 19:19 | 43.71243 | 9.64443 | 15474 ft | 237 kts | 326° |
| 2026-04-21 19:20 | 43.72678 | 9.63324 | 15369 ft | 237 kts | 326° |
| 2026-04-21 19:20 | 43.74113 | 9.62204 | 15248 ft | 237 kts | 326° |
| 2026-04-21 19:20 | 43.75549 | 9.61083 | 15140 ft | 237 kts | 326° |
| 2026-04-21 19:20 | 43.76987 | 9.59959 | 15036 ft | 237 kts | 326° |
| 2026-04-21 19:21 | 43.78418 | 9.58841 | 14952 ft | 236 kts | 326° |
| 2026-04-21 19:21 | 43.79846 | 9.57724 | 14940 ft | 237 kts | 326° |
| 2026-04-21 19:21 | 43.81284 | 9.56599 | 14950 ft | 237 kts | 326° |
| 2026-04-21 19:21 | 43.82720 | 9.55475 | 14964 ft | 237 kts | 326° |
| 2026-04-21 19:22 | 43.84134 | 9.54367 | 14956 ft | 236 kts | 326° |
| 2026-04-21 19:22 | 43.85577 | 9.53236 | 14950 ft | 236 kts | 326° |
| 2026-04-21 19:22 | 43.86988 | 9.52130 | 14950 ft | 236 kts | 326° |
| 2026-04-21 19:22 | 43.88415 | 9.51011 | 14951 ft | 236 kts | 326° |
| 2026-04-21 19:23 | 43.89840 | 9.49892 | 14953 ft | 236 kts | 326° |
| 2026-04-21 19:23 | 43.91267 | 9.48771 | 14951 ft | 236 kts | 326° |
| 2026-04-21 19:23 | 43.92694 | 9.47650 | 14950 ft | 236 kts | 326° |
| 2026-04-21 19:23 | 43.94121 | 9.46528 | 14946 ft | 236 kts | 326° |
| 2026-04-21 19:24 | 43.95547 | 9.45407 | 14946 ft | 236 kts | 326° |
| 2026-04-21 19:24 | 43.96973 | 9.44285 | 14950 ft | 236 kts | 326° |
| 2026-04-21 19:24 | 43.98328 | 9.43037 | 14922 ft | 232 kts | 311° |
| 2026-04-21 19:24 | 43.99276 | 9.41253 | 14968 ft | 231 kts | 304° |
| 2026-04-21 19:25 | 44.00222 | 9.39446 | 14980 ft | 230 kts | 305° |
| 2026-04-21 19:25 | 44.01124 | 9.37696 | 14979 ft | 216 kts | 304° |
| 2026-04-21 19:25 | 44.02037 | 9.36089 | 14932 ft | 210 kts | 317° |
| 2026-04-21 19:25 | 44.03358 | 9.35259 | 14855 ft | 219 kts | 348° |
| 2026-04-21 19:26 | 44.04942 | 9.35567 | 14621 ft | 246 kts | 17° |
| 2026-04-21 19:26 | 44.06352 | 9.37061 | 14377 ft | 267 kts | 46° |
| 2026-04-21 19:26 | 44.07161 | 9.39428 | 14137 ft | 280 kts | 75° |
| 2026-04-21 19:26 | 44.07220 | 9.42178 | 13954 ft | 288 kts | 92° |
| 2026-04-21 19:27 | 44.06863 | 9.44924 | 13935 ft | 292 kts | 111° |
| 2026-04-21 19:27 | 44.05769 | 9.47265 | 13925 ft | 289 kts | 140° |
| 2026-04-21 19:27 | 44.04089 | 9.48701 | 13924 ft | 281 kts | 168° |
| 2026-04-21 19:27 | 44.02194 | 9.49138 | 13951 ft | 275 kts | 182° |
| 2026-04-21 19:28 | 44.00279 | 9.49271 | 13973 ft | 276 kts | 183° |
| 2026-04-21 19:28 | 43.98366 | 9.49381 | 13958 ft | 275 kts | 183° |
| 2026-04-21 19:28 | 43.96449 | 9.49488 | 13954 ft | 275 kts | 183° |
| 2026-04-21 19:28 | 43.94535 | 9.49595 | 13954 ft | 275 kts | 183° |
| 2026-04-21 19:29 | 43.92617 | 9.49701 | 13950 ft | 275 kts | 183° |
| 2026-04-21 19:29 | 43.90705 | 9.49806 | 13948 ft | 275 kts | 183° |
| 2026-04-21 19:29 | 43.88827 | 9.49628 | 13916 ft | 265 kts | 204° |
| 2026-04-21 19:29 | 43.87293 | 9.48428 | 13911 ft | 248 kts | 232° |
| 2026-04-21 19:30 | 43.86436 | 9.46462 | 13930 ft | 235 kts | 261° |
| 2026-04-21 19:30 | 43.86261 | 9.44230 | 13870 ft | 234 kts | 272° |
| 2026-04-21 19:30 | 43.86253 | 9.41972 | 13680 ft | 235 kts | 273° |
| 2026-04-21 19:30 | 43.86258 | 9.39715 | 13437 ft | 234 kts | 273° |
| 2026-04-21 19:31 | 43.86267 | 9.37492 | 13201 ft | 233 kts | 273° |
| 2026-04-21 19:31 | 43.86452 | 9.35254 | 12942 ft | 230 kts | 292° |
| 2026-04-21 19:31 | 43.87202 | 9.33347 | 12712 ft | 229 kts | 303° |
| 2026-04-21 19:31 | 43.88101 | 9.31485 | 12484 ft | 229 kts | 303° |
| 2026-04-21 19:32 | 43.88994 | 9.29658 | 12251 ft | 229 kts | 303° |
| 2026-04-21 19:32 | 43.89888 | 9.27831 | 12014 ft | 229 kts | 303° |
| 2026-04-21 19:32 | 43.90783 | 9.26006 | 11793 ft | 229 kts | 303° |
| 2026-04-21 19:32 | 43.91679 | 9.24179 | 11566 ft | 229 kts | 303° |
| 2026-04-21 19:33 | 43.92272 | 9.22972 | 11417 ft | 229 kts | 303° |
| 2026-04-21 19:33 | 43.93660 | 9.20819 | 11149 ft | 228 kts | 329° |
| 2026-04-21 19:33 | 43.95194 | 9.20317 | 10925 ft | 230 kts | 355° |
| 2026-04-21 19:33 | 43.96788 | 9.20621 | 10694 ft | 235 kts | 13° |
| 2026-04-21 19:34 | 43.98252 | 9.21681 | 10448 ft | 241 kts | 32° |
| 2026-04-21 19:34 | 43.99597 | 9.23074 | 10223 ft | 242 kts | 31° |
| 2026-04-21 19:34 | 44.00956 | 9.24449 | 9975 ft | 241 kts | 32° |
| 2026-04-21 19:34 | 44.02312 | 9.25821 | 9720 ft | 240 kts | 32° |
| 2026-04-21 19:35 | 44.03658 | 9.27182 | 9448 ft | 239 kts | 32° |
| 2026-04-21 19:35 | 44.06337 | 9.29890 | 8984 ft | 235 kts | 33° |
| 2026-04-21 19:35 | 44.07638 | 9.31209 | 8787 ft | 230 kts | 33° |
| 2026-04-21 19:36 | 44.08930 | 9.32516 | 8468 ft | 229 kts | 33° |
| 2026-04-21 19:36 | 44.10213 | 9.33816 | 8185 ft | 228 kts | 33° |
| 2026-04-21 19:36 | 44.11494 | 9.35113 | 7904 ft | 227 kts | 33° |
| 2026-04-21 19:36 | 44.12758 | 9.36394 | 7697 ft | 221 kts | 33° |
| 2026-04-21 19:37 | 44.14058 | 9.37414 | 7526 ft | 210 kts | 11° |
| 2026-04-21 19:37 | 44.15478 | 9.37398 | 7219 ft | 205 kts | 341° |
| 2026-04-21 19:37 | 44.16728 | 9.36493 | 6908 ft | 203 kts | 325° |
| 2026-04-21 19:37 | 44.17894 | 9.35368 | 6620 ft | 204 kts | 324° |
| 2026-04-21 19:38 | 44.19043 | 9.34225 | 6350 ft | 203 kts | 323° |
| 2026-04-21 19:38 | 44.20187 | 9.33061 | 6134 ft | 203 kts | 323° |
| 2026-04-21 19:38 | 44.20956 | 9.32272 | 6045 ft | 204 kts | 323° |
| 2026-04-21 19:38 | 44.22463 | 9.30708 | 5889 ft | 204 kts | 322° |
| 2026-04-21 19:39 | 44.23599 | 9.29520 | 5759 ft | 204 kts | 322° |
| 2026-04-21 19:39 | 44.24735 | 9.28326 | 5636 ft | 205 kts | 322° |
| 2026-04-21 19:39 | 44.25871 | 9.27129 | 5507 ft | 205 kts | 322° |
| 2026-04-21 19:39 | 44.27007 | 9.25928 | 5387 ft | 205 kts | 322° |
| 2026-04-21 19:40 | 44.28143 | 9.24729 | 5261 ft | 205 kts | 322° |
| 2026-04-21 19:40 | 44.29277 | 9.23530 | 5140 ft | 205 kts | 322° |
| 2026-04-21 19:40 | 44.30416 | 9.22326 | 5014 ft | 205 kts | 323° |
| 2026-04-21 19:40 | 44.31550 | 9.21127 | 4890 ft | 205 kts | 323° |
| 2026-04-21 19:41 | 44.32686 | 9.19924 | 4767 ft | 205 kts | 322° |
| 2026-04-21 19:41 | 44.33599 | 9.18443 | 4616 ft | 203 kts | 293° |
| 2026-04-21 19:41 | 44.34070 | 9.16581 | 4612 ft | 205 kts | 289° |
| 2026-04-21 19:41 | 44.34528 | 9.14686 | 4351 ft | 206 kts | 288° |
| 2026-04-21 19:42 | 44.34960 | 9.12794 | 4089 ft | 202 kts | 287° |
| 2026-04-21 19:42 | 44.35233 | 9.11560 | 3911 ft | 199 kts | 287° |
| 2026-04-21 19:42 | 44.35771 | 9.09114 | 3558 ft | 194 kts | 287° |
| 2026-04-21 19:42 | 44.36033 | 9.07925 | 3392 ft | 192 kts | 287° |
| 2026-04-21 19:43 | 44.36422 | 9.06153 | 3136 ft | 190 kts | 287° |
| 2026-04-21 19:43 | 44.36811 | 9.04383 | 2875 ft | 190 kts | 287° |
| 2026-04-21 19:43 | 44.37198 | 9.02618 | 2610 ft | 188 kts | 287° |
| 2026-04-21 19:43 | 44.37565 | 9.00945 | 2378 ft | 171 kts | 287° |
| 2026-04-21 19:44 | 44.37908 | 8.99383 | 2143 ft | 166 kts | 287° |
| 2026-04-21 19:44 | 44.38245 | 8.97850 | 1915 ft | 161 kts | 287° |
| 2026-04-21 19:44 | 44.38565 | 8.96391 | 1673 ft | 154 kts | 287° |
| 2026-04-21 19:44 | 44.38923 | 8.94990 | 1340 ft | 152 kts | 291° |
| 2026-04-21 19:45 | 44.39304 | 8.93631 | 1125 ft | 147 kts | 290° |
| 2026-04-21 19:45 | 44.39619 | 8.92266 | 943 ft | 149 kts | 285° |
| 2026-04-21 19:45 | 44.39886 | 8.90849 | 798 ft | 152 kts | 284° |
| 2026-04-21 19:45 | 44.40170 | 8.89401 | 612 ft | 156 kts | 285° |
| 2026-04-21 19:46 | 44.40464 | 8.87938 | 381 ft | 156 kts | 284° |
| 2026-04-21 19:46 | 44.40751 | 8.86476 | 169 ft | 155 kts | 284° |
| 2026-04-21 19:46 | 44.41027 | 8.85037 | 28 ft | 145 kts | 285° |
| 2026-04-21 19:46 | 44.41216 | 8.84071 | 26 ft | 45 kts | 285° |
| 2026-04-21 19:47 | 44.41302 | 8.83791 | 22 ft | 14 kts | 319° |
| 2026-04-21 19:47 | 44.41395 | 8.83752 | 22 ft | 16 kts | 28° |
| 2026-04-21 19:47 | 44.41405 | 8.83892 | 22 ft | 17 kts | 107° |
| 2026-04-21 19:47 | 44.41376 | 8.84041 | 24 ft | 16 kts | 104° |
| 2026-04-21 19:48 | 44.41371 | 8.84071 | 22 ft | 1 kts | 103° |
| 2026-04-21 19:48 | 44.41364 | 8.84111 | 25 ft | 9 kts | 105° |
| 2026-04-21 19:48 | 44.41337 | 8.84245 | 22 ft | 8 kts | 106° |
| 2026-04-21 19:48 | 44.41334 | 8.84256 | 22 ft | 0 kts | 105° |
| 2026-04-21 19:49 | 44.41334 | 8.84257 | 22 ft | 1 kts | 105° |
| 2026-04-21 19:50 | 44.41327 | 8.84296 | 26 ft | 9 kts | 104° |
| 2026-04-21 19:50 | 44.41299 | 8.84434 | 23 ft | 19 kts | 105° |
| 2026-04-21 19:50 | 44.41261 | 8.84629 | 22 ft | 22 kts | 105° |
| 2026-04-21 19:50 | 44.41230 | 8.84787 | 22 ft | 0 kts | 105° |
| 2026-04-21 19:51 | 44.41230 | 8.84788 | 22 ft | 1 kts | 105° |
| 2026-04-21 19:51 | 44.41226 | 8.84808 | 24 ft | 4 kts | 104° |
| 2026-04-21 19:52 | 44.41217 | 8.84857 | 22 ft | 7 kts | 104° |
| 2026-04-21 19:52 | 44.41235 | 8.84918 | 23 ft | 8 kts | 24° |
| 2026-04-21 19:52 | 44.41296 | 8.84940 | 22 ft | 10 kts | 13° |
| 2026-04-21 19:52 | 44.41345 | 8.84992 | 22 ft | 7 kts | 73° |
| 2026-04-21 19:53 | 44.41385 | 8.85026 | 25 ft | 3 kts | 14° |
| 2026-04-21 19:53 | 44.41409 | 8.85035 | 24 ft | 2 kts | 15° |
| 2026-04-21 19:53 | 44.41417 | 8.85038 | 22 ft | 0 kts | 15° |